New Cumberland, Ohio
Current Conditions -  °F | °C
As of 3:53 PM on Thursday 23 Oct 2014 (Local Time) from KPHD Reporting Station
Broken Clouds Broken Clouds  
Wind Chill: 59°   Ceiling: 3300
Heat Index: 59°   Visibility: 10mi
Dew Point: 44°   Wind: 10mph
Humidity: 58%   Direction: 310°NW
Pressure: 30.13"   Gusts: NA
Location:  40.5975°N, 81.3327°W
Report Text: KPHD 231953Z AUTO 31009KT 10SM BKN033 15/07 A3013 RMK AO2 SLP204 T01500067
Loading
Personal Weather Stations






























Interactive Weather Map
Tropical Storm Tracking
New forecast layout! Learn more

10-Day Weather Forecast

Advertisements
Track Severe Weather on mobile